Time;durP1;ratioP1;P1;durP2;ratioP2;P2;SDS_P1;SDS_P2;PMS_P1;PMS_P2;Temp;Humidity;BMP_temperature;BMP_pressure;BME280_temperature;BME280_humidity;BME280_pressure;Samples;Min_cycle;Max_cycle;Signal;HPM_P1;HPM_P2
2023/05/12 00:02:23;;;;;;;;;;;;;;;-142.75;100.00;76885.25;5006976;28;19917;-67
2023/05/12 00:04:48;;;;;;;;;;;;;;;-142.75;100.00;76881.31;5007229;28;20802;-67
2023/05/12 00:07:14;;;;;;;;;;;;;;;-142.75;100.00;76885.25;5006682;28;19917;-67
2023/05/12 00:09:40;;;;;;;;;;;;;;;-142.75;100.00;76877.38;5007390;28;20020;-69
2023/05/12 00:12:06;;;;;;;;;;;;;;;-142.75;100.00;76885.25;5005771;28;19975;-68
2023/05/12 00:14:31;;;;;;;;;;;;;;;-142.75;100.00;76885.25;5006805;28;19965;-68
2023/05/12 00:16:56;;;;;;;;;;;;;;;-142.75;100.00;76887.22;5006813;28;19917;-68
2023/05/12 00:19:21;;;;;;;;;;;;;;;-142.75;100.00;76897.06;5006827;28;19921;-67
2023/05/12 00:21:46;;;;;;;;;;;;;;;-142.75;100.00;76889.19;5006183;28;19917;-68
2023/05/12 00:24:12;;;;;;;;;;;;;;;-142.75;100.00;76906.91;5007172;28;19917;-70
2023/05/12 00:26:38;;;;;;;;;;;;;;;-142.75;100.00;76912.81;5006321;28;19921;-67
2023/05/12 00:29:03;;;;;;;;;;;;;;;-142.75;100.00;76920.69;5006535;28;19971;-68
2023/05/12 00:31:29;;;;;;;;;;;;;;;-142.75;100.00;76920.69;5021538;28;19917;-69
2023/05/12 00:33:54;;;;;;;;;;;;;;;-142.75;100.00;76916.75;5006370;28;19938;-66
2023/05/12 00:36:19;;;;;;;;;;;;;;;-142.75;100.00;76920.69;5006194;28;19989;-67
2023/05/12 00:38:45;;;;;;;;;;;;;;;-142.75;100.00;76944.31;5006687;28;19914;-69
2023/05/12 00:41:10;;;;;;;;;;;;;;;-142.75;100.00;76946.28;5006472;28;19913;-67
2023/05/12 00:43:35;;;;;;;;;;;;;;;-142.75;100.00;76952.19;5006581;28;19914;-67
2023/05/12 00:46:02;;;;;;;;;;;;;;;-142.75;100.00;76962.03;5006112;28;19913;-68
2023/05/12 00:48:27;;;;;;;;;;;;;;;-142.75;100.00;76956.13;5006301;28;19920;-69
2023/05/12 00:50:53;;;;;;;;;;;;;;;-142.75;100.00;76956.13;5006414;28;20124;-67
2023/05/12 00:53:18;;;;;;;;;;;;;;;-142.75;100.00;76946.28;5006549;28;19917;-67
2023/05/12 00:55:43;;;;;;;;;;;;;;;-142.75;100.00;76952.19;5006615;28;19968;-69
2023/05/12 00:58:09;;;;;;;;;;;;;;;-142.75;100.00;76962.03;5006380;28;19941;-68
2023/05/12 01:00:34;;;;;;;;;;;;;;;-142.75;100.00;76948.25;5009607;28;19913;-67
2023/05/12 01:02:59;;;;;;;;;;;;;;;-142.75;100.00;76960.06;5010093;28;19978;-67
2023/05/12 01:05:26;;;;;;;;;;;;;;;-142.75;100.00;76958.09;5008628;28;19948;-66
2023/05/12 01:07:52;;;;;;;;;;;;;;;-142.75;100.00;76995.50;5010406;28;19983;-69
2023/05/12 01:10:18;;;;;;;;;;;;;;;-142.75;100.00;76979.75;5008837;28;20321;-67
2023/05/12 01:12:44;;;;;;;;;;;;;;;-142.75;100.00;76993.53;5009723;28;19968;-69
2023/05/12 01:15:09;;;;;;;;;;;;;;;-142.75;100.00;76971.88;5009885;28;19913;-68
2023/05/12 01:17:35;;;;;;;;;;;;;;;-142.75;100.00;76977.78;5010064;28;19913;-67
2023/05/12 01:20:02;;;;;;;;;;;;;;;-142.75;100.00;76993.53;5009389;28;19971;-67
2023/05/12 01:22:30;;;;;;;;;;;;;;;-142.75;100.00;77007.31;5009482;28;19920;-68
2023/05/12 01:25:00;;;;;;;;;;;;;;;-142.75;100.00;77007.31;5010185;28;20566;-67
2023/05/12 01:27:26;;;;;;;;;;;;;;;-142.75;100.00;76999.44;5009524;28;19920;-66
2023/05/12 01:29:51;;;;;;;;;;;;;;;-142.75;100.00;76991.56;5009641;28;19914;-67
2023/05/12 01:32:17;;;;;;;;;;;;;;;-142.75;100.00;76995.50;5009259;28;19966;-69
2023/05/12 01:34:43;;;;;;;;;;;;;;;-142.75;100.00;76993.53;5009148;28;19921;-67
2023/05/12 01:37:08;;;;;;;;;;;;;;;-142.75;100.00;76999.44;5009375;28;19996;-68
2023/05/12 01:39:34;;;;;;;;;;;;;;;-142.75;100.00;76999.44;5009537;28;19917;-67
2023/05/12 01:41:59;;;;;;;;;;;;;;;-142.75;100.00;77007.31;5009548;28;19932;-68
2023/05/12 01:44:25;;;;;;;;;;;;;;;-142.75;100.00;77007.31;5007733;28;19999;-65
2023/05/12 01:46:50;;;;;;;;;;;;;;;-142.75;100.00;76989.59;5009610;28;19923;-67
2023/05/12 01:49:15;;;;;;;;;;;;;;;-142.75;100.00;77003.38;5009887;28;20007;-68
2023/05/12 01:51:40;;;;;;;;;;;;;;;-142.75;100.00;77003.38;5009708;28;19920;-67
2023/05/12 01:54:06;;;;;;;;;;;;;;;-142.75;100.00;76991.56;5009587;28;19918;-68
2023/05/12 01:56:31;;;;;;;;;;;;;;;-142.75;100.00;76999.44;5009010;28;20401;-67
2023/05/12 01:58:56;;;;;;;;;;;;;;;-142.75;100.00;77001.41;5024175;28;19917;-67
2023/05/12 02:01:24;;;;;;;;;;;;;;;-142.75;100.00;77011.25;5009421;28;20367;-69
2023/05/12 02:03:50;;;;;;;;;;;;;;;-142.75;100.00;77001.41;5008909;28;19913;-67
2023/05/12 02:06:15;;;;;;;;;;;;;;;-142.75;100.00;77003.38;5001520;28;19960;-67
2023/05/12 02:08:41;;;;;;;;;;;;;;;-142.75;100.00;77017.16;5008192;28;19983;-68
2023/05/12 02:11:07;;;;;;;;;;;;;;;-142.75;100.00;77019.13;5008185;28;20009;-69
2023/05/12 02:13:33;;;;;;;;;;;;;;;-142.75;100.00;77021.09;5008877;28;19917;-68
2023/05/12 02:15:58;;;;;;;;;;;;;;;-142.75;100.00;77030.94;5023370;28;20000;-66
2023/05/12 02:18:23;;;;;;;;;;;;;;;-142.75;100.00;77023.06;5008653;28;20221;-67
2023/05/12 02:20:48;;;;;;;;;;;;;;;-142.75;100.00;77011.25;5008459;28;20365;-70
2023/05/12 02:23:14;;;;;;;;;;;;;;;-142.75;100.00;77021.09;5008599;28;20000;-66
2023/05/12 02:25:39;;;;;;;;;;;;;;;-142.75;100.00;77019.13;5008459;28;20000;-68
2023/05/12 02:28:07;;;;;;;;;;;;;;;-142.75;100.00;77013.22;5022315;28;19913;-67
2023/05/12 02:30:32;;;;;;;;;;;;;;;-142.75;100.00;77028.97;5005454;28;19920;-67
2023/05/12 02:32:58;;;;;;;;;;;;;;;-142.75;100.00;77028.97;5008033;28;20429;-67
2023/05/12 02:35:23;;;;;;;;;;;;;;;-142.75;100.00;77032.91;5008128;28;20392;-69
2023/05/12 02:37:48;;;;;;;;;;;;;;;-142.75;100.00;77019.13;5008590;28;19955;-69
2023/05/12 02:40:13;;;;;;;;;;;;;;;-142.75;100.00;77021.09;5008534;28;19914;-67
2023/05/12 02:42:39;;;;;;;;;;;;;;;-142.75;100.00;77019.13;5008379;28;19918;-68
2023/05/12 02:45:04;;;;;;;;;;;;;;;-142.75;100.00;77015.19;5008355;28;20317;-68
2023/05/12 02:47:31;;;;;;;;;;;;;;;-142.75;100.00;77019.13;5008505;28;19914;-67
2023/05/12 02:49:57;;;;;;;;;;;;;;;-142.75;100.00;77001.41;5008223;28;19999;-68
2023/05/12 02:52:22;;;;;;;;;;;;;;;-142.75;100.00;77001.41;5023572;28;19972;-67
2023/05/12 02:54:47;;;;;;;;;;;;;;;-142.75;100.00;76991.56;5008791;28;20998;-67
2023/05/12 02:57:12;;;;;;;;;;;;;;;-142.75;100.00;76989.59;5008229;28;19913;-69
2023/05/12 02:59:37;;;;;;;;;;;;;;;-142.75;100.00;76991.56;5008232;28;19939;-67
2023/05/12 03:02:04;;;;;;;;;;;;;;;-142.75;100.00;77005.34;5007884;28;19924;-67
2023/05/12 03:04:29;;;;;;;;;;;;;;;-142.75;100.00;76981.72;5023020;28;19920;-67
2023/05/12 03:06:55;;;;;;;;;;;;;;;-142.75;100.00;76975.81;5007751;28;19914;-65
2023/05/12 03:09:21;;;;;;;;;;;;;;;-142.75;100.00;76979.75;5008061;28;20555;-70
2023/05/12 03:11:46;;;;;;;;;;;;;;;-142.75;100.00;76991.56;5022764;28;19968;-67
2023/05/12 03:14:11;;;;;;;;;;;;;;;-142.75;100.00;76991.56;5007720;28;20386;-67
2023/05/12 03:16:36;;;;;;;;;;;;;;;-142.75;100.00;76991.56;5007459;28;19955;-68
2023/05/12 03:19:03;;;;;;;;;;;;;;;-142.75;100.00;76995.50;5007686;28;19913;-68
2023/05/12 03:21:29;;;;;;;;;;;;;;;-142.75;100.00;76985.66;5006888;28;20298;-67
2023/05/12 03:23:54;;;;;;;;;;;;;;;-142.75;100.00;76981.72;5007764;28;19917;-69
2023/05/12 03:26:19;;;;;;;;;;;;;;;-142.75;100.00;76975.81;5007742;28;19950;-67
2023/05/12 03:28:44;;;;;;;;;;;;;;;-142.75;100.00;76977.78;5007750;28;19918;-69
2023/05/12 03:31:09;;;;;;;;;;;;;;;-142.75;100.00;76971.88;5007143;28;19920;-66
2023/05/12 03:33:35;;;;;;;;;;;;;;;-142.75;100.00;76983.69;5004267;28;20381;-66
2023/05/12 03:36:00;;;;;;;;;;;;;;;-142.75;100.00;76983.69;5005859;28;19913;-67
2023/05/12 03:38:25;;;;;;;;;;;;;;;-142.75;100.00;76971.88;5007161;28;19914;-66
2023/05/12 03:40:53;;;;;;;;;;;;;;;-142.75;100.00;76975.81;5007425;28;19924;-66
2023/05/12 03:43:18;;;;;;;;;;;;;;;-142.75;100.00;76971.88;5007158;28;19921;-68
2023/05/12 03:45:43;;;;;;;;;;;;;;;-142.75;100.00;76971.88;5005384;28;19924;-68
2023/05/12 03:48:09;;;;;;;;;;;;;;;-142.75;100.00;76967.94;5007107;28;20515;-66
2023/05/12 03:50:34;;;;;;;;;;;;;;;-142.75;100.00;76958.09;5007083;28;19928;-68
2023/05/12 03:52:59;;;;;;;;;;;;;;;-142.75;100.00;76964.00;5006662;28;19954;-67
2023/05/12 03:55:25;;;;;;;;;;;;;;;-142.75;100.00;76960.06;5005865;28;19960;-66
2023/05/12 03:57:50;;;;;;;;;;;;;;;-142.75;100.00;76950.22;5005562;28;19914;-68
2023/05/12 04:00:15;;;;;;;;;;;;;;;-142.75;100.00;76934.47;5006516;28;20006;-67
2023/05/12 04:02:41;;;;;;;;;;;;;;;-142.75;100.00;76944.31;5005493;28;19914;-69
2023/05/12 04:05:07;;;;;;;;;;;;;;;-142.75;100.00;76930.53;5005394;28;19914;-67
2023/05/12 04:07:32;;;;;;;;;;;;;;;-142.75;100.00;76924.63;5007215;28;19918;-67
2023/05/12 04:09:58;;;;;;;;;;;;;;;-142.75;100.00;76924.63;5006940;28;19967;-67
2023/05/12 04:12:24;;;;;;;;;;;;;;;-142.75;100.00;76928.56;5006724;28;19917;-69
2023/05/12 04:14:49;;;;;;;;;;;;;;;-142.75;100.00;76908.88;5005472;28;20295;-68
2023/05/12 04:17:15;;;;;;;;;;;;;;;-142.75;100.00;76928.56;5006743;28;19992;-67
2023/05/12 04:19:40;;;;;;;;;;;;;;;-142.75;100.00;76918.72;5006554;28;20345;-68
2023/05/12 04:22:05;;;;;;;;;;;;;;;-142.75;100.00;76906.91;5006780;28;19925;-67
2023/05/12 04:24:30;;;;;;;;;;;;;;;-142.75;100.00;76912.81;5005963;28;19913;-67
2023/05/12 04:26:56;;;;;;;;;;;;;;;-142.75;100.00;76914.78;5006317;28;19917;-66
2023/05/12 04:29:21;;;;;;;;;;;;;;;-142.75;100.00;76897.06;5006719;28;20016;-69
2023/05/12 04:31:46;;;;;;;;;;;;;;;-142.75;100.00;76912.81;5006579;28;20236;-68
2023/05/12 04:34:12;;;;;;;;;;;;;;;-142.75;100.00;76910.84;5005928;28;20013;-66
2023/05/12 04:36:37;;;;;;;;;;;;;;;-142.75;100.00;76901.00;5006551;28;19935;-69
2023/05/12 04:39:03;;;;;;;;;;;;;;;-142.75;100.00;76897.06;5021667;28;19956;-67
2023/05/12 04:41:28;;;;;;;;;;;;;;;-142.75;100.00;76893.13;5005078;28;19913;-67
2023/05/12 04:43:53;;;;;;;;;;;;;;;-142.75;100.00;76873.44;5006669;28;19917;-67
2023/05/12 04:46:19;;;;;;;;;;;;;;;-142.75;100.00;76875.41;5005120;28;19921;-67
2023/05/12 04:48:45;;;;;;;;;;;;;;;-142.75;100.00;76881.31;5006516;28;19957;-67
2023/05/12 04:51:10;;;;;;;;;;;;;;;-142.75;100.00;76863.59;5006515;28;19967;-67
2023/05/12 04:53:35;;;;;;;;;;;;;;;-142.75;100.00;76859.66;5006273;28;19926;-67
2023/05/12 04:56:01;;;;;;;;;;;;;;;-142.75;100.00;76861.63;5006682;28;19913;-67
2023/05/12 04:58:26;;;;;;;;;;;;;;;-142.75;100.00;76849.81;5005828;28;19913;-68
2023/05/12 05:00:51;;;;;;;;;;;;;;;-142.75;100.00;76836.03;5006160;28;19921;-67
2023/05/12 05:03:17;;;;;;;;;;;;;;;-142.75;100.00;76838.00;5005946;28;19913;-66
2023/05/12 05:05:42;;;;;;;;;;;;;;;-142.75;100.00;76834.06;5006259;28;19913;-68
2023/05/12 05:08:07;;;;;;;;;;;;;;;-142.75;100.00;76830.13;5005937;28;19964;-64
2023/05/12 05:10:33;;;;;;;;;;;;;;;-142.75;100.00;76822.25;5005195;28;19913;-68
2023/05/12 05:12:58;;;;;;;;;;;;;;;-142.75;100.00;76822.25;5021509;28;19928;-67
2023/05/12 05:15:23;;;;;;;;;;;;;;;-142.75;100.00;76816.34;5021692;28;20425;-69
2023/05/12 05:17:48;;;;;;;;;;;;;;;-142.75;100.00;76832.09;5022325;28;19966;-66
2023/05/12 05:20:14;;;;;;;;;;;;;;;-142.75;100.00;76826.19;5006641;28;20451;-67
2023/05/12 05:22:39;;;;;;;;;;;;;;;-142.75;100.00;76822.25;5006466;28;19944;-67
2023/05/12 05:25:05;;;;;;;;;;;;;;;-142.75;100.00;76816.34;5005255;28;19999;-67
2023/05/12 05:27:30;;;;;;;;;;;;;;;-142.75;100.00;76822.25;5005289;28;19920;-67
2023/05/12 05:29:56;;;;;;;;;;;;;;;-142.75;100.00;76802.56;5006559;28;19917;-68
2023/05/12 05:32:21;;;;;;;;;;;;;;;-142.75;100.00;76798.66;5006708;28;20481;-69
2023/05/12 05:34:46;;;;;;;;;;;;;;;-142.75;100.00;76806.50;5006943;28;19917;-70
2023/05/12 05:37:12;;;;;;;;;;;;;;;-142.75;100.00;76794.69;5021728;28;20387;-66
2023/05/12 05:39:37;;;;;;;;;;;;;;;-142.75;100.00;76788.81;5006360;28;19921;-67
2023/05/12 05:42:02;;;;;;;;;;;;;;;-142.75;100.00;76778.97;5006788;28;20286;-70
2023/05/12 05:44:28;;;;;;;;;;;;;;;-142.75;100.00;76769.13;5006375;28;19921;-67
2023/05/12 05:46:53;;;;;;;;;;;;;;;-142.75;100.00;76767.16;5009898;28;19972;-70
2023/05/12 05:49:18;;;;;;;;;;;;;;;-142.75;100.00;76786.84;5010110;28;19913;-67
2023/05/12 05:51:43;;;;;;;;;;;;;;;-142.75;100.00;76761.25;5010174;28;19929;-67
2023/05/12 05:54:09;;;;;;;;;;;;;;;-142.75;100.00;76763.22;5010066;28;19983;-69
2023/05/12 05:56:34;;;;;;;;;;;;;;;-142.75;100.00;76767.16;5024935;28;19971;-68
2023/05/12 05:59:02;;;;;;;;;;;;;;;-142.75;100.00;76753.38;5009803;28;19913;-66
2023/05/12 06:01:27;;;;;;;;;;;;;;;-142.75;100.00;76755.34;5009602;28;19914;-69
2023/05/12 06:03:52;;;;;;;;;;;;;;;-142.75;100.00;76747.47;5010079;28;20414;-67
2023/05/12 06:06:17;;;;;;;;;;;;;;;-142.75;100.00;76763.22;5010264;28;19917;-67
2023/05/12 06:08:43;;;;;;;;;;;;;;;-142.75;100.00;76763.22;5010107;28;19917;-67
2023/05/12 06:11:08;;;;;;;;;;;;;;;-142.75;100.00;76761.25;5010003;28;19920;-69
2023/05/12 06:13:33;;;;;;;;;;;;;;;-142.75;100.00;76765.19;5009739;28;19921;-67
2023/05/12 06:15:58;;;;;;;;;;;;;;;-142.75;100.00;76753.38;5009475;28;19917;-69
2023/05/12 06:18:23;;;;;;;;;;;;;;;-142.75;100.00;76751.41;5009518;28;19921;-66
2023/05/12 06:20:49;;;;;;;;;;;;;;;-142.75;100.00;76755.34;5022468;28;19913;-71
2023/05/12 06:23:14;;;;;;;;;;;;;;;-142.75;100.00;76773.06;5009553;28;19920;-68
2023/05/12 06:25:39;;;;;;;;;;;;;;;-142.75;100.00;76778.97;5004408;28;20280;-69
2023/05/12 06:28:04;;;;;;;;;;;;;;;-142.75;100.00;76788.81;5009064;28;20391;-67
2023/05/12 06:30:29;;;;;;;;;;;;;;;-142.75;100.00;76778.97;5008688;28;19937;-66
2023/05/12 06:32:55;;;;;;;;;;;;;;;-142.75;100.00;76767.16;5008889;28;19924;-69
2023/05/12 06:35:20;;;;;;;;;;;;;;;-142.75;100.00;76751.41;5008790;28;20302;-67
2023/05/12 06:37:49;;;;;;;;;;;;;;;-142.75;100.00;76737.63;5009245;28;20366;-68
2023/05/12 06:40:15;;;;;;;;;;;;;;;-142.75;100.00;76714.00;5021837;28;19913;-68
2023/05/12 06:42:41;;;;;;;;;;;;;;;-142.75;100.00;76712.03;5008680;28;19913;-68
2023/05/12 06:45:06;;;;;;;;;;;;;;;-142.75;100.00;76717.94;5006164;28;19921;-68
2023/05/12 06:47:32;;;;;;;;;;;;;;;-142.75;100.00;76721.88;5004955;28;20007;-70
2023/05/12 06:49:57;;;;;;;;;;;;;;;-142.75;100.00;76712.03;5007310;28;19914;-68
2023/05/12 06:52:22;;;;;;;;;;;;;;;-142.75;100.00;76712.03;5015984;28;19917;-67
2023/05/12 06:54:48;;;;;;;;;;;;;;;-142.75;100.00;76714.00;5010348;28;19913;-67
2023/05/12 06:57:13;;;;;;;;;;;;;;;-142.75;100.00;76719.91;5010609;28;20386;-68
2023/05/12 06:59:38;;;;;;;;;;;;;;;-142.75;100.00;76714.00;5010623;28;19913;-69
2023/05/12 07:02:04;;;;;;;;;;;;;;;-142.75;100.00;76725.81;5008449;28;19913;-69
2023/05/12 07:04:29;;;;;;;;;;;;;;;-142.75;100.00;76725.81;5008719;28;20045;-67
2023/05/12 07:06:55;;;;;;;;;;;;;;;-142.75;100.00;76735.66;5008379;28;19913;-67
2023/05/12 07:09:21;;;;;;;;;;;;;;;-142.75;100.00;76745.50;5008678;28;19920;-68
2023/05/12 07:11:46;;;;;;;;;;;;;;;-142.75;100.00;76739.59;5006803;28;19914;-68
2023/05/12 07:14:11;;;;;;;;;;;;;;;-142.75;100.00;76721.88;5005251;28;19921;-71
2023/05/12 07:16:37;;;;;;;;;;;;;;;-142.75;100.00;76710.06;5007221;28;20000;-67
2023/05/12 07:19:04;;;;;;;;;;;;;;;-142.75;100.00;76719.91;5007976;28;19937;-69
2023/05/12 07:21:30;;;;;;;;;;;;;;;-142.75;100.00;76712.03;5004194;28;20418;-68
2023/05/12 07:23:55;;;;;;;;;;;;;;;-142.75;100.00;76698.25;5007914;28;19940;-69
2023/05/12 07:26:23;;;;;;;;;;;;;;;-142.75;100.00;76702.19;5006613;28;19913;-68
2023/05/12 07:28:48;;;;;;;;;;;;;;;-142.75;100.00;76674.63;5005138;28;19968;-68
2023/05/12 07:31:13;;;;;;;;;;;;;;;-142.75;100.00;76678.56;5007742;28;20159;-69
2023/05/12 07:33:38;;;;;;;;;;;;;;;-142.75;100.00;76637.22;5007639;28;20294;-69
2023/05/12 07:36:04;;;;;;;;;;;;;;;-142.75;100.00;76633.28;5007450;28;20433;-67
2023/05/12 07:38:29;;;;;;;;;;;;;;;-142.75;100.00;76643.13;5006738;28;19913;-68
2023/05/12 07:40:54;;;;;;;;;;;;;;;-142.75;100.00;76637.22;5016065;28;20348;-68
2023/05/12 07:43:19;;;;;;;;;;;;;;;-142.75;100.00;76643.13;5007412;28;19913;-68
2023/05/12 07:45:45;;;;;;;;;;;;;;;-142.75;100.00;76654.94;4999641;28;20414;-68
2023/05/12 07:48:10;;;;;;;;;;;;;;;-142.75;100.00;76656.91;5006252;28;20521;-71
2023/05/12 07:50:36;;;;;;;;;;;;;;;-142.75;100.00;76700.22;5007330;28;19921;-68
2023/05/12 07:53:01;;;;;;;;;;;;;;;-142.75;100.00;76688.41;5007256;28;19931;-68
2023/05/12 07:55:26;;;;;;;;;;;;;;;-142.75;100.00;76664.78;5006561;28;19967;-68
2023/05/12 07:57:51;;;;;;;;;;;;;;;-142.75;100.00;76692.34;5007662;28;19920;-71
2023/05/12 08:00:17;;;;;;;;;;;;;;;-142.75;100.00;76670.69;5007101;28;20379;-69
2023/05/12 08:02:42;;;;;;;;;;;;;;;-142.75;100.00;76678.56;5006367;28;19921;-70
2023/05/12 08:05:08;;;;;;;;;;;;;;;-142.75;100.00;76684.47;5018169;28;20458;-69
2023/05/12 08:07:34;;;;;;;;;;;;;;;-142.75;100.00;76678.56;5006417;28;19987;-69
2023/05/12 08:09:59;;;;;;;;;;;;;;;-142.75;100.00;76698.25;5004844;28;19913;-66
2023/05/12 08:12:24;;;;;;;;;;;;;;;-142.75;100.00;76700.22;5002633;28;20418;-65
2023/05/12 08:14:49;;;;;;;;;;;;;;;-142.75;100.00;76676.59;5006915;28;19972;-67
2023/05/12 08:17:15;;;;;;;;;;;;;;;-142.75;100.00;76690.38;5006988;28;19959;-64
2023/05/12 08:19:40;;;;;;;;;;;;;;;-142.75;100.00;76712.03;5006138;28;19948;-68
2023/05/12 08:22:05;;;;;;;;;;;;;;;-142.75;100.00;76723.84;5006558;28;19913;-68
2023/05/12 08:24:30;;;;;;;;;;;;;;;-142.75;100.00;76710.06;5006439;28;19913;-68
2023/05/12 08:26:56;;;;;;;;;;;;;;;-142.75;100.00;76714.00;5005082;28;20306;-69
2023/05/12 08:29:21;;;;;;;;;;;;;;;-142.75;100.00;76698.25;5006989;28;19918;-67
2023/05/12 08:31:46;;;;;;;;;;;;;;;-142.75;100.00;76692.34;5003523;28;19928;-69
2023/05/12 08:34:11;;;;;;;;;;;;;;;-142.75;100.00;76676.59;5006578;28;19917;-67
2023/05/12 08:36:40;;;;;;;;;;;;;;;-142.75;100.00;76686.44;5006570;28;19920;-71
2023/05/12 08:39:05;;;;;;;;;;;;;;;-142.75;100.00;76668.72;5006664;28;19995;-68
2023/05/12 08:41:35;;;;;;;;;;;;;;;-142.75;100.00;76631.31;5007127;28;19964;-67
2023/05/12 08:44:01;;;;;;;;;;;;;;;-142.75;100.00;76649.03;5006755;28;19960;-68
2023/05/12 08:46:26;;;;;;;;;;;;;;;-142.75;100.00;76645.09;5006623;28;20475;-70
2023/05/12 08:48:52;;;;;;;;;;;;;;;-142.75;100.00;76617.53;5006284;28;19995;-67
2023/05/12 08:51:18;;;;;;;;;;;;;;;-142.75;100.00;76643.13;5003899;28;19941;-69
2023/05/12 08:53:45;;;;;;;;;;;;;;;-142.75;100.00;76651.00;5006989;28;19921;-69
2023/05/12 08:56:12;;;;;;;;;;;;;;;-142.75;100.00;76597.84;5006774;28;20006;-68
2023/05/12 08:58:38;;;;;;;;;;;;;;;-142.75;100.00;76550.59;5007069;28;19917;-69
2023/05/12 09:01:05;;;;;;;;;;;;;;;-142.75;100.00;76554.53;5007124;28;19917;-69
2023/05/12 09:03:30;;;;;;;;;;;;;;;-142.75;100.00;76562.41;5007049;28;19921;-69
2023/05/12 09:05:57;;;;;;;;;;;;;;;-142.75;100.00;76540.75;5006904;28;19917;-68
2023/05/12 09:08:23;;;;;;;;;;;;;;;-142.75;100.00;76593.91;5005649;28;19913;-70
2023/05/12 09:10:49;;;;;;;;;;;;;;;-142.75;100.00;76562.41;5006752;28;19952;-67
2023/05/12 09:13:37;;;;;;;;;;;;;;;-142.75;100.00;76554.53;5006760;28;20345;-68
2023/05/12 09:16:04;;;;;;;;;;;;;;;-142.75;100.00;76534.84;5006895;28;20404;-70
2023/05/12 09:18:48;;;;;;;;;;;;;;;-142.75;100.00;76495.50;5006997;28;19913;-69
2023/05/12 09:21:13;;;;;;;;;;;;;;;-142.75;100.00;76483.69;5009219;28;19913;-70
2023/05/12 09:23:38;;;;;;;;;;;;;;;-142.75;100.00;76467.94;5021085;28;19913;-70
2023/05/12 09:26:04;;;;;;;;;;;;;;;-142.75;100.00;76460.06;5010198;28;19959;-69
2023/05/12 09:28:38;;;;;;;;;;;;;;;-142.75;100.00;76418.72;5008133;28;19921;-67
2023/05/12 09:31:20;;;;;;;;;;;;;;;-142.75;100.00;76446.28;5005071;28;19917;-70
2023/05/12 09:33:45;;;;;;;;;;;;;;;-142.75;100.00;76450.22;5010167;28;19917;-70
2023/05/12 09:36:11;;;;;;;;;;;;;;;-142.75;100.00;76473.84;5010057;28;20390;-69
2023/05/12 09:38:36;;;;;;;;;;;;;;;-142.75;100.00;76430.53;5008992;28;19913;-70
2023/05/12 09:41:01;;;;;;;;;;;;;;;-142.75;100.00;76420.69;5010201;28;19921;-70
2023/05/12 09:43:27;;;;;;;;;;;;;;;-142.75;100.00;76397.06;5010159;28;19964;-67
2023/05/12 09:45:54;;;;;;;;;;;;;;;-142.75;100.00;76416.75;5025582;28;20369;-69
2023/05/12 09:48:19;;;;;;;;;;;;;;;-142.75;100.00;76444.31;5009748;28;20414;-69
2023/05/12 09:50:46;;;;;;;;;;;;;;;-142.75;100.00;76418.72;5006949;28;19913;-70
2023/05/12 09:53:11;;;;;;;;;;;;;;;-142.75;100.00;76410.84;5007096;28;19917;-66
2023/05/12 09:55:37;;;;;;;;;;;;;;;-142.75;100.00;76310.47;5005926;28;20306;-69
2023/05/12 09:58:07;;;;;;;;;;;;;;;-142.75;100.00;76288.81;5007945;28;19928;-69
2023/05/12 10:00:33;;;;;;;;;;;;;;;-142.75;100.00;76334.09;5008806;28;19920;-71
2023/05/12 10:02:59;;;;;;;;;;;;;;;-142.75;100.00;76288.81;5008540;28;19913;-70
2023/05/12 10:05:24;;;;;;;;;;;;;;;-142.75;100.00;76212.03;5008053;28;19921;-70
2023/05/12 10:07:53;;;;;;;;;;;;;;;-142.75;100.00;76170.72;5006676;28;20401;-71
2023/05/12 10:10:20;;;;;;;;;;;;;;;-142.75;100.00;76200.25;5003427;28;19920;-72
2023/05/12 10:12:45;;;;;;;;;;;;;;;-142.75;100.00;76208.09;5009003;28;20371;-70
2023/05/12 10:15:12;;;;;;;;;;;;;;;-142.75;100.00;76176.63;5009367;28;19919;-71
2023/05/12 10:17:38;;;;;;;;;;;;;;;-142.75;100.00;76162.84;5009188;28;19917;-70
2023/05/12 10:20:05;;;;;;;;;;;;;;;-142.75;100.00;76143.16;5009360;28;19913;-70
2023/05/12 10:22:32;;;;;;;;;;;;;;;-142.75;100.00;76219.91;5024411;28;19913;-70
2023/05/12 10:24:58;;;;;;;;;;;;;;;-142.75;100.00;76196.31;5008152;28;20016;-71
2023/05/12 10:27:24;;;;;;;;;;;;;;;-142.75;100.00;76200.25;5007921;28;20441;-70
2023/05/12 10:29:50;;;;;;;;;;;;;;;-142.75;100.00;76135.28;5009201;28;19939;-71
2023/05/12 10:32:15;;;;;;;;;;;;;;;-142.75;100.00;76097.88;5008698;28;20417;-72
2023/05/12 10:34:43;;;;;;;;;;;;;;;-142.75;96.47;76196.31;5009228;28;19924;-71
2023/05/12 10:37:12;;;;;;;;;;;;;;;-142.75;98.26;76184.50;5009261;28;19920;-70
2023/05/12 10:39:47;;;;;;;;;;;;;;;-142.75;100.00;76210.06;5009124;28;20421;-71
2023/05/12 10:42:15;;;;;;;;;;;;;;;-142.75;100.00;76204.16;5009158;28;19913;-70
2023/05/12 10:44:53;;;;;;;;;;;;;;;-142.75;100.00;76223.84;5007946;28;20382;-70
2023/05/12 10:47:34;;;;;;;;;;;;;;;-142.75;100.00;76231.72;5009323;28;19920;-70
2023/05/12 10:50:00;;;;;;;;;;;;;;;-142.75;99.59;76257.31;5007966;28;19913;-70
2023/05/12 10:52:25;;;;;;;;;;;;;;;-142.75;96.59;76267.16;5008822;28;20283;-70
2023/05/12 10:54:58;;;;;;;;;;;;;;;-142.75;93.57;76284.88;5023974;28;19965;-70
2023/05/12 10:57:23;;;;;;;;;;;;;;;-142.75;98.97;76269.13;5008091;28;19943;-70
2023/05/12 10:59:55;;;;;;;;;;;;;;;-142.75;100.00;76219.91;5008365;28;20379;-70
2023/05/12 11:02:31;;;;;;;;;;;;;;;-142.75;97.56;76204.16;5007872;28;19913;-71
2023/05/12 11:04:58;;;;;;;;;;;;;;;-142.75;97.46;76123.47;5001362;28;20537;-71
2023/05/12 11:07:26;;;;;;;;;;;;;;;-142.75;97.54;76078.19;5008187;28;19971;-70
2023/05/12 11:09:53;;;;;;;;;;;;;;;-142.75;94.80;76074.25;5008763;28;19914;-70
2023/05/12 11:12:18;;;;;;;;;;;;;;;-142.75;92.22;76109.69;5007349;28;20417;-70
2023/05/12 11:14:44;;;;;;;;;;;;;;;-142.75;97.11;76182.53;5006807;28;19932;-70
2023/05/12 11:17:10;;;;;;;;;;;;;;;-142.75;99.92;76145.13;5007319;28;20011;-72
2023/05/12 11:19:36;;;;;;;;;;;;;;;-142.75;90.71;76113.63;5008271;28;19981;-68
2023/05/12 11:22:06;;;;;;;;;;;;;;;-142.75;89.44;76121.50;5007816;28;19913;-69
2023/05/12 11:24:32;;;;;;;;;;;;;;;-142.75;86.78;76156.94;5008231;28;19968;-69
2023/05/12 11:26:58;;;;;;;;;;;;;;;-142.75;85.06;76180.56;5006895;28;19944;-69
2023/05/12 11:29:23;;;;;;;;;;;;;;;-142.75;86.47;76206.13;5023508;28;20579;-68
2023/05/12 11:31:49;;;;;;;;;;;;;;;-142.75;86.78;76251.41;5007237;28;20387;-67
2023/05/12 11:34:15;;;;;;;;;;;;;;;-142.75;90.28;76255.34;5007886;28;19925;-70
2023/05/12 11:36:42;;;;;;;;;;;;;;;-142.75;90.88;76251.41;5007930;28;19913;-68
2023/05/12 11:39:16;;;;;;;;;;;;;;;-142.75;91.31;76227.78;5008273;28;20429;-70
2023/05/12 11:41:42;;;;;;;;;;;;;;;-142.75;85.69;76221.88;5008498;28;19913;-68
2023/05/12 11:44:14;;;;;;;;;;;;;;;-142.75;85.47;76168.75;5007522;28;19976;-69
2023/05/12 11:46:40;;;;;;;;;;;;;;;-142.75;85.38;76115.59;5007767;28;19922;-69
2023/05/12 11:49:09;;;;;;;;;;;;;;;-142.75;84.44;76101.81;5006554;28;19913;-69
2023/05/12 11:51:34;;;;;;;;;;;;;;;-142.75;79.41;76137.25;5007874;28;20379;-71
2023/05/12 11:54:00;;;;;;;;;;;;;;;-142.75;79.17;76160.88;5022936;28;19997;-69
2023/05/12 11:56:25;;;;;;;;;;;;;;;-142.75;78.78;76123.47;5022775;28;19914;-68
2023/05/12 11:58:55;;;;;;;;;;;;;;;-142.75;76.81;76119.53;5008067;28;19913;-70
2023/05/12 12:01:20;;;;;;;;;;;;;;;-142.75;74.32;76121.50;5005401;28;20056;-70
2023/05/12 12:03:47;;;;;;;;;;;;;;;-142.75;74.50;76113.63;5006284;28;19913;-70
2023/05/12 12:06:13;;;;;;;;;;;;;;;-142.75;75.37;76156.94;5005908;28;20438;-70
2023/05/12 12:08:48;;;;;;;;;;;;;;;-142.75;74.11;76115.59;5007521;28;19913;-68
2023/05/12 12:11:13;;;;;;;;;;;;;;;-142.75;75.20;76127.41;5007254;28;19921;-71
2023/05/12 12:13:46;;;;;;;;;;;;;;;-142.75;73.46;76160.88;5007067;28;19921;-69